createdAt,value
2022-09-01T00:01:42.240Z,24.25
2022-09-01T00:04:12.773Z,23.00
2022-09-01T00:06:40.907Z,25.40
2022-09-01T00:09:11.282Z,24.70
2022-09-01T00:11:39.563Z,25.05
2022-09-01T00:14:29.353Z,24.23
2022-09-01T00:16:56.083Z,23.95
2022-09-01T00:19:23.877Z,23.17
2022-09-01T00:21:51.523Z,24.30
2022-09-01T00:24:19.085Z,23.02
2022-09-01T00:26:46.211Z,23.23
2022-09-01T00:29:13.325Z,26.15
2022-09-01T00:31:40.261Z,23.15
2022-09-01T00:34:06.887Z,25.75
2022-09-01T00:36:33.456Z,23.98
2022-09-01T00:39:00.274Z,20.63
2022-09-01T00:41:29.858Z,24.88
2022-09-01T00:44:00.144Z,23.58
2022-09-01T00:46:30.737Z,24.67
2022-09-01T00:49:22.165Z,23.50
2022-09-01T00:51:53.181Z,25.90
2022-09-01T00:54:23.108Z,21.30
2022-09-01T00:56:57.800Z,24.10
2022-09-01T00:59:26.774Z,23.88
2022-09-01T01:01:54.501Z,24.85
2022-09-01T01:04:21.226Z,27.50
2022-09-01T01:06:58.922Z,26.05
2022-09-01T01:09:27.832Z,28.60
2022-09-01T01:11:57.657Z,29.50
2022-09-01T01:14:24.178Z,24.45
2022-09-01T01:16:52.069Z,24.15
2022-09-01T01:20:00.520Z,21.63
2022-09-01T01:23:02.689Z,23.75
2022-09-01T01:25:33.326Z,27.75
2022-09-01T01:28:07.331Z,28.00
2022-09-01T01:30:36.945Z,24.77
2022-09-01T01:33:06.026Z,26.05
2022-09-01T01:35:34.882Z,23.17
2022-09-01T01:38:07.685Z,23.55
2022-09-01T01:40:36.357Z,24.75
2022-09-01T01:43:04.819Z,21.55
2022-09-01T01:45:32.055Z,24.23
2022-09-01T01:48:00.005Z,26.30
2022-09-01T01:50:33.457Z,25.05
2022-09-01T01:53:02.844Z,25.08
2022-09-01T01:55:37.795Z,28.20
2022-09-01T01:58:04.880Z,26.13
2022-09-01T02:00:34.593Z,26.48
2022-09-01T02:03:03.699Z,26.45
2022-09-01T02:05:32.734Z,26.67
2022-09-01T02:08:04.640Z,26.38
2022-09-01T02:10:35.153Z,27.98
2022-09-01T02:13:05.914Z,29.15
2022-09-01T02:15:38.776Z,27.60
2022-09-01T02:18:06.063Z,27.55
2022-09-01T02:20:32.960Z,29.60
2022-09-01T02:23:10.547Z,32.35
2022-09-01T02:25:58.961Z,30.30
2022-09-01T02:28:32.220Z,27.33
2022-09-01T02:31:02.705Z,26.77
2022-09-01T02:33:31.401Z,29.60
2022-09-01T02:36:04.129Z,30.30
2022-09-01T02:38:33.718Z,27.60
2022-09-01T02:41:03.919Z,29.00
2022-09-01T02:43:31.628Z,27.38
2022-09-01T02:46:00.359Z,30.52
2022-09-01T02:48:35.773Z,28.25
2022-09-01T02:51:09.507Z,27.52
2022-09-01T02:53:39.293Z,27.55
2022-09-01T02:56:12.053Z,25.67
2022-09-01T02:58:45.749Z,27.98
2022-09-01T03:01:19.526Z,28.33
2022-09-01T03:03:48.319Z,27.60
2022-09-01T03:06:18.450Z,28.80
2022-09-01T03:08:46.296Z,28.13
2022-09-01T03:11:13.538Z,26.95
2022-09-01T03:13:41.650Z,26.55
2022-09-01T03:16:09.291Z,29.38
2022-09-01T03:18:36.926Z,27.30
2022-09-01T03:21:05.232Z,25.48
2022-09-01T03:23:33.279Z,27.67
2022-09-01T03:26:01.332Z,25.42
2022-09-01T03:28:28.803Z,26.95
2022-09-01T03:30:57.545Z,26.13
2022-09-01T03:33:26.672Z,27.70
2022-09-01T03:35:56.263Z,27.58
2022-09-01T03:38:24.675Z,30.00
2022-09-01T03:41:46.134Z,26.45
2022-09-01T03:48:19.564Z,28.83
2022-09-01T03:50:47.241Z,28.65
2022-09-01T03:53:17.020Z,32.72
2022-09-01T03:55:45.711Z,27.73
2022-09-01T03:58:14.723Z,35.47
2022-09-01T04:00:48.738Z,28.88
2022-09-01T04:03:28.593Z,30.00
2022-09-01T04:05:56.910Z,31.63
2022-09-01T04:08:27.511Z,27.73
2022-09-01T04:11:02.935Z,29.55
2022-09-01T04:13:35.484Z,32.00
2022-09-01T04:16:02.664Z,29.98
2022-09-01T04:22:38.326Z,30.55
2022-09-01T04:25:06.708Z,28.58
2022-09-01T04:27:34.011Z,30.55
2022-09-01T04:30:01.483Z,31.67
2022-09-01T04:32:30.800Z,28.58
2022-09-01T04:35:01.578Z,27.70
2022-09-01T04:37:28.654Z,30.60
2022-09-01T04:39:58.928Z,29.88
2022-09-01T04:42:29.758Z,31.63
2022-09-01T04:44:59.954Z,29.20
2022-09-01T04:48:41.953Z,30.38
2022-09-01T04:51:10.535Z,29.67
2022-09-01T04:53:50.663Z,27.02
2022-09-01T04:56:20.733Z,29.25
2022-09-01T04:58:58.226Z,27.90
2022-09-01T05:01:27.776Z,30.23
2022-09-01T05:04:01.295Z,28.02
2022-09-01T05:06:39.457Z,27.27
2022-09-01T05:09:06.110Z,29.52
2022-09-01T05:11:52.964Z,29.23
2022-09-01T05:14:25.991Z,29.30
2022-09-01T05:16:59.878Z,29.70
2022-09-01T05:19:29.825Z,28.83
2022-09-01T05:21:59.917Z,33.75
2022-09-01T05:24:30.542Z,32.88
2022-09-01T05:27:00.454Z,31.48
2022-09-01T05:29:28.858Z,31.17
2022-09-01T05:31:57.988Z,30.58
2022-09-01T05:34:26.811Z,25.80
2022-09-01T05:36:57.933Z,31.05
2022-09-01T05:39:25.831Z,29.77
2022-09-01T05:41:53.884Z,27.80
2022-09-01T05:44:22.924Z,27.55
2022-09-01T05:46:51.305Z,28.33
2022-09-01T05:49:19.359Z,26.77
2022-09-01T05:51:51.771Z,27.95
2022-09-01T05:54:25.701Z,29.38
2022-09-01T05:56:53.658Z,24.05
2022-09-01T05:59:24.689Z,26.88
2022-09-01T06:01:54.327Z,25.52
2022-09-01T06:04:22.981Z,25.63
2022-09-01T06:07:08.801Z,27.20
2022-09-01T06:09:43.864Z,24.63
2022-09-01T06:12:18.407Z,25.17
2022-09-01T06:14:51.220Z,26.25
2022-09-01T06:17:24.702Z,24.37
2022-09-01T06:19:53.326Z,24.23
2022-09-01T06:22:20.608Z,23.08
2022-09-01T06:24:54.543Z,22.88
2022-09-01T06:27:23.558Z,21.95
2022-09-01T06:29:53.610Z,20.48
2022-09-01T06:32:20.646Z,21.75
2022-09-01T06:34:51.365Z,22.33
2022-09-01T06:37:22.491Z,22.05
2022-09-01T06:39:52.186Z,21.23
2022-09-01T06:42:19.618Z,23.17
2022-09-01T06:44:52.583Z,21.63
2022-09-01T06:47:19.471Z,20.83
2022-09-01T06:49:46.022Z,20.00
2022-09-01T06:54:48.682Z,22.65
2022-09-01T07:00:07.977Z,22.50
2022-09-01T07:02:34.920Z,20.70
2022-09-01T07:08:17.921Z,17.92
2022-09-01T07:12:07.305Z,16.70
2022-09-01T07:16:51.816Z,14.40
2022-09-01T07:19:20.781Z,12.30
2022-09-01T07:22:08.611Z,12.45
2022-09-01T07:24:40.062Z,11.35
2022-09-01T07:27:41.524Z,11.00
2022-09-01T07:30:09.705Z,12.35
2022-09-01T07:32:47.207Z,11.40
2022-09-01T07:35:18.414Z,12.90
2022-09-01T07:43:56.258Z,12.10
2022-09-01T07:46:42.302Z,14.10
2022-09-01T07:49:31.818Z,13.85
2022-09-01T07:52:02.094Z,27.70
2022-09-01T07:54:30.261Z,12.15
2022-09-01T07:56:57.372Z,12.43
2022-09-01T07:59:27.851Z,12.52
2022-09-01T08:02:06.613Z,12.40
2022-09-01T08:04:34.332Z,13.10
2022-09-01T08:07:01.727Z,14.07
2022-09-01T08:09:38.193Z,13.88
2022-09-01T08:12:10.815Z,14.30
2022-09-01T08:14:40.042Z,13.82
2022-09-01T08:19:56.312Z,15.20
2022-09-01T08:22:42.717Z,15.05
2022-09-01T08:25:20.758Z,13.93
2022-09-01T08:27:59.737Z,13.18
2022-09-01T08:30:27.861Z,14.85
2022-09-01T08:32:54.719Z,16.38
2022-09-01T08:35:22.158Z,14.50
2022-09-01T08:37:48.785Z,14.18
2022-09-01T08:40:20.184Z,13.02
2022-09-01T08:43:02.250Z,16.98
2022-09-01T08:45:35.886Z,16.77
2022-09-01T08:48:57.206Z,16.88
2022-09-01T08:51:30.692Z,14.20
2022-09-01T08:54:11.013Z,14.98
2022-09-01T08:56:37.819Z,12.88
2022-09-01T08:59:09.595Z,15.13
2022-09-01T09:02:31.199Z,13.57
2022-09-01T09:05:15.809Z,14.00
2022-09-01T09:08:07.820Z,13.85
2022-09-01T09:11:00.976Z,13.40
2022-09-01T09:14:13.401Z,14.00
2022-09-01T09:16:47.858Z,14.63
2022-09-01T09:19:26.153Z,14.00
2022-09-01T09:21:54.975Z,14.77
2022-09-01T09:24:29.195Z,12.60
2022-09-01T09:27:05.349Z,12.23
2022-09-01T09:29:33.875Z,15.48
2022-09-01T09:34:56.887Z,11.93
2022-09-01T09:37:29.471Z,12.18
2022-09-01T09:40:03.895Z,11.47
2022-09-01T09:42:34.865Z,11.55
2022-09-01T09:45:04.321Z,10.50
2022-09-01T09:47:44.901Z,10.35
2022-09-01T09:50:14.928Z,11.85
2022-09-01T09:52:41.511Z,9.90
2022-09-01T09:55:28.449Z,10.07
2022-09-01T09:57:59.555Z,11.55
2022-09-01T10:00:30.224Z,11.63
2022-09-01T10:03:11.202Z,10.73
2022-09-01T10:05:44.966Z,10.07
2022-09-01T10:08:44.692Z,12.23
2022-09-01T10:11:30.044Z,10.43
2022-09-01T10:14:02.579Z,9.00
2022-09-01T10:16:32.063Z,8.93
2022-09-01T10:19:01.265Z,10.32
2022-09-01T10:21:40.397Z,12.05
2022-09-01T10:24:26.002Z,11.32
2022-09-01T10:26:58.247Z,11.20
2022-09-01T10:29:47.495Z,10.05
2022-09-01T10:32:36.682Z,10.85
2022-09-01T10:35:14.534Z,8.85
2022-09-01T10:37:42.117Z,8.95
2022-09-01T10:40:43.466Z,8.63
2022-09-01T10:43:37.905Z,9.00
2022-09-01T10:46:42.148Z,9.52
2022-09-01T10:49:25.228Z,8.25
2022-09-01T10:51:57.043Z,7.97
2022-09-01T10:54:51.466Z,7.60
2022-09-01T10:57:44.183Z,7.68
2022-09-01T11:00:36.317Z,8.88
2022-09-01T11:06:12.900Z,8.75
2022-09-01T11:08:42.056Z,8.55
2022-09-01T11:14:17.638Z,9.90
2022-09-01T11:17:18.459Z,8.13
2022-09-01T11:20:10.361Z,9.07
2022-09-01T11:22:46.562Z,9.60
2022-09-01T11:25:40.492Z,9.15
2022-09-01T11:28:18.140Z,8.85
2022-09-01T11:30:55.497Z,7.70
2022-09-01T11:33:32.330Z,8.57
2022-09-01T11:36:00.783Z,8.55
2022-09-01T11:38:29.247Z,7.82
2022-09-01T11:40:57.224Z,8.48
2022-09-01T11:43:27.245Z,5.88
2022-09-01T11:45:59.859Z,5.47
2022-09-01T11:48:26.942Z,5.72
2022-09-01T11:51:00.538Z,6.65
2022-09-01T11:53:27.797Z,5.28
2022-09-01T11:55:57.231Z,4.30
2022-09-01T11:58:27.715Z,4.53
2022-09-01T12:00:56.535Z,5.88
2022-09-01T12:03:25.870Z,5.53
2022-09-01T12:06:01.787Z,5.05
2022-09-01T12:08:34.747Z,5.00
2022-09-01T12:11:27.031Z,5.88
2022-09-01T12:14:10.930Z,5.55
2022-09-01T12:16:42.110Z,5.07
2022-09-01T12:19:11.841Z,5.03
2022-09-01T12:21:44.091Z,6.25
2022-09-01T12:24:16.454Z,7.05
2022-09-01T12:26:44.827Z,6.13
2022-09-01T12:29:13.770Z,5.45
2022-09-01T12:31:43.250Z,4.70
2022-09-01T12:34:24.391Z,6.00
2022-09-01T12:37:21.352Z,4.55
2022-09-01T12:39:51.389Z,4.43
2022-09-01T12:42:21.206Z,5.30
2022-09-01T12:44:52.531Z,6.53
2022-09-01T12:47:34.407Z,5.82
2022-09-01T12:50:29.752Z,6.25
2022-09-01T12:53:04.059Z,7.47
2022-09-01T12:55:51.526Z,5.10
2022-09-01T12:58:23.312Z,5.00
2022-09-01T13:01:05.784Z,7.53
2022-09-01T13:03:38.821Z,6.60
2022-09-01T13:06:05.505Z,5.43
2022-09-01T13:08:34.648Z,6.53
2022-09-01T13:11:09.106Z,7.38
2022-09-01T13:13:37.481Z,5.95
2022-09-01T13:16:08.493Z,5.95
2022-09-01T13:19:10.460Z,5.68
2022-09-01T13:21:21.879Z,6.30
2022-09-01T13:23:50.644Z,5.18
2022-09-01T13:26:17.646Z,4.72
2022-09-01T13:28:45.950Z,6.63
2022-09-01T13:31:29.333Z,4.82
2022-09-01T13:34:22.099Z,4.35
2022-09-01T13:36:45.571Z,5.25
2022-09-01T13:39:13.430Z,5.38
2022-09-01T13:41:39.942Z,5.70
2022-09-01T13:44:06.942Z,6.43
2022-09-01T13:46:33.480Z,4.35
2022-09-01T13:49:04.383Z,4.53
2022-09-01T13:51:31.623Z,4.85
2022-09-01T13:53:58.336Z,5.47
2022-09-01T13:56:24.879Z,4.97
2022-09-01T13:58:51.502Z,5.70
2022-09-01T14:01:18.126Z,4.68
2022-09-01T14:03:47.838Z,4.05
2022-09-01T14:06:16.705Z,4.22
2022-09-01T14:08:43.255Z,4.38
2022-09-01T14:11:19.904Z,4.32
2022-09-01T14:13:47.075Z,5.63
2022-09-01T14:16:16.852Z,4.63
2022-09-01T14:18:43.445Z,5.25
2022-09-01T14:21:15.446Z,5.15
2022-09-01T14:23:43.758Z,4.25
2022-09-01T14:26:12.103Z,4.55
2022-09-01T14:28:40.636Z,6.25
2022-09-01T14:31:11.285Z,4.95
2022-09-01T14:33:39.229Z,4.32
2022-09-01T14:36:09.269Z,4.90
2022-09-01T14:38:38.830Z,4.55
2022-09-01T14:41:05.454Z,5.90
2022-09-01T14:43:33.081Z,6.55
2022-09-01T14:46:06.443Z,4.72
2022-09-01T14:51:01.383Z,5.38
2022-09-01T14:53:30.019Z,5.28
2022-09-01T14:56:01.434Z,4.82
2022-09-01T14:58:29.646Z,5.45
2022-09-01T15:01:07.236Z,4.30
2022-09-01T15:03:38.793Z,3.60
2022-09-01T15:06:05.501Z,3.90
2022-09-01T15:08:32.006Z,4.15
2022-09-01T15:11:01.315Z,5.18
2022-09-01T15:13:27.915Z,3.65
2022-09-01T15:15:54.525Z,5.68
2022-09-01T15:18:21.265Z,5.93
2022-09-01T15:20:48.690Z,5.47
2022-09-01T15:23:21.482Z,5.30
2022-09-01T15:25:50.313Z,6.18
2022-09-01T15:28:16.939Z,4.53
2022-09-01T15:30:46.509Z,4.45
2022-09-01T15:33:15.799Z,6.15
2022-09-01T15:35:44.917Z,3.83
2022-09-01T15:38:15.793Z,3.53
2022-09-01T15:40:46.083Z,5.80
2022-09-01T15:43:22.490Z,3.65
2022-09-01T15:45:49.139Z,6.18
2022-09-01T15:48:15.710Z,3.60
2022-09-01T15:50:45.010Z,4.10
2022-09-01T15:53:13.185Z,5.13
2022-09-01T15:55:46.168Z,3.88
2022-09-01T15:58:15.710Z,5.00
2022-09-01T16:00:43.507Z,7.07
2022-09-01T16:03:10.561Z,5.35
2022-09-01T16:05:39.500Z,7.10
2022-09-01T16:08:09.492Z,3.45
2022-09-01T16:10:39.863Z,4.22
2022-09-01T16:13:07.124Z,5.40
2022-09-01T16:15:35.163Z,4.07
2022-09-01T16:18:41.669Z,4.80
2022-09-01T16:21:20.501Z,3.97
2022-09-01T16:23:49.846Z,4.47
2022-09-01T16:26:20.322Z,4.05
2022-09-01T16:28:57.493Z,3.17
2022-09-01T16:31:27.956Z,5.38
2022-09-01T16:33:57.225Z,10.52
2022-09-01T16:37:05.608Z,3.50
2022-09-01T16:39:46.899Z,4.90
2022-09-01T16:42:40.846Z,3.97
2022-09-01T16:47:45.936Z,5.93
2022-09-01T16:50:35.278Z,4.47
2022-09-01T16:53:16.910Z,3.45
2022-09-01T16:56:02.368Z,3.88
2022-09-01T16:58:49.198Z,4.15
2022-09-01T17:01:31.917Z,4.63
2022-09-01T17:04:15.249Z,5.40
2022-09-01T17:07:15.681Z,4.03
2022-09-01T17:09:45.151Z,4.90
2022-09-01T17:12:38.410Z,4.72
2022-09-01T17:15:18.295Z,3.60
2022-09-01T17:17:50.921Z,3.75
2022-09-01T17:20:25.063Z,5.60
2022-09-01T17:22:54.223Z,4.05
2022-09-01T17:25:33.493Z,6.22
2022-09-01T17:28:04.761Z,3.85
2022-09-01T17:30:36.205Z,4.45
2022-09-01T17:33:52.439Z,6.72
2022-09-01T17:36:47.124Z,4.32
2022-09-01T17:39:14.147Z,3.88
2022-09-01T17:41:54.524Z,3.97
2022-09-01T17:44:45.378Z,4.35
2022-09-01T17:47:36.285Z,4.60
2022-09-01T17:50:11.650Z,5.22
2022-09-01T17:52:53.504Z,4.43
2022-09-01T17:55:41.600Z,4.28
2022-09-01T17:58:32.297Z,5.20
2022-09-01T18:01:23.843Z,6.32
2022-09-01T18:04:13.930Z,4.25
2022-09-01T18:07:03.464Z,5.40
2022-09-01T18:09:34.911Z,3.95
2022-09-01T18:12:09.706Z,4.55
2022-09-01T18:14:49.579Z,5.32
2022-09-01T18:17:25.845Z,5.32
2022-09-01T18:20:07.317Z,4.30
2022-09-01T18:22:40.643Z,8.07
2022-09-01T18:25:36.177Z,4.57
2022-09-01T18:28:02.800Z,5.57
2022-09-01T18:30:55.748Z,5.80
2022-09-01T18:33:25.155Z,4.57
2022-09-01T18:36:22.234Z,4.47
2022-09-01T18:39:14.943Z,4.03
2022-09-01T18:42:06.202Z,5.43
2022-09-01T18:44:38.673Z,5.40
2022-09-01T18:47:24.207Z,3.58
2022-09-01T18:50:17.856Z,3.60
2022-09-01T18:53:16.453Z,4.50
2022-09-01T18:56:04.332Z,4.72
2022-09-01T18:58:33.803Z,5.93
2022-09-01T19:01:07.278Z,3.40
2022-09-01T19:07:39.874Z,6.57
2022-09-01T19:10:19.383Z,5.18
2022-09-01T19:12:57.793Z,5.05
2022-09-01T19:15:40.013Z,3.45
2022-09-01T19:18:15.422Z,5.28
2022-09-01T19:20:57.101Z,3.97
2022-09-01T19:23:26.654Z,4.45
2022-09-01T19:25:59.396Z,4.63
2022-09-01T19:28:41.254Z,4.38
2022-09-01T19:31:29.155Z,5.55
2022-09-01T19:34:02.751Z,5.90
2022-09-01T19:39:19.285Z,3.90
2022-09-01T19:41:52.001Z,3.55
2022-09-01T19:44:24.566Z,6.50
2022-09-01T19:46:55.691Z,5.20
2022-09-01T19:49:45.278Z,5.53
2022-09-01T19:52:33.334Z,3.28
2022-09-01T19:55:05.436Z,3.75
2022-09-01T19:57:56.410Z,5.43
2022-09-01T20:00:24.952Z,5.68
2022-09-01T20:03:07.958Z,4.65
2022-09-01T20:05:41.157Z,4.03
2022-09-01T20:08:23.728Z,3.63
2022-09-01T20:11:05.153Z,3.70
2022-09-01T20:13:49.354Z,4.53
2022-09-01T20:16:52.832Z,4.22
2022-09-01T20:19:22.456Z,5.83
2022-09-01T20:21:49.370Z,4.00
2022-09-01T20:24:38.439Z,3.70
2022-09-01T20:27:20.156Z,4.55
2022-09-01T20:30:07.359Z,3.95
2022-09-01T20:36:35.364Z,4.63
2022-09-01T20:39:26.529Z,5.45
2022-09-01T20:42:01.882Z,3.95
2022-09-01T20:44:48.136Z,5.85
2022-09-01T20:47:14.779Z,5.03
2022-09-01T20:49:41.508Z,5.93
2022-09-01T20:52:33.765Z,4.57
2022-09-01T20:55:16.599Z,3.80
2022-09-01T20:58:01.550Z,5.40
2022-09-01T21:00:30.265Z,4.72
2022-09-01T21:03:07.894Z,5.47
2022-09-01T21:05:44.697Z,5.55
2022-09-01T21:08:25.155Z,5.68
2022-09-01T21:11:16.042Z,4.90
2022-09-01T21:14:03.944Z,3.58
2022-09-01T21:17:02.649Z,4.82
2022-09-01T21:19:53.417Z,5.85
2022-09-01T21:22:22.429Z,3.67
2022-09-01T21:24:49.736Z,3.95
2022-09-01T21:27:23.093Z,5.43
2022-09-01T21:29:59.511Z,5.93
2022-09-01T21:32:29.252Z,6.22
2022-09-01T21:34:56.650Z,5.35
2022-09-01T21:37:24.494Z,7.07
2022-09-01T21:39:53.120Z,4.88
2022-09-01T21:42:25.676Z,5.93
2022-09-01T21:44:54.438Z,6.57
2022-09-01T21:47:21.773Z,5.57
2022-09-01T21:49:48.332Z,8.55
2022-09-01T21:52:15.069Z,4.03
2022-09-01T21:54:41.693Z,4.93
2022-09-01T21:57:08.388Z,5.15
2022-09-01T21:59:34.995Z,4.30
2022-09-01T22:02:01.929Z,4.88
2022-09-01T22:04:28.505Z,5.90
2022-09-01T22:06:55.076Z,4.75
2022-09-01T22:09:21.961Z,3.65
2022-09-01T22:11:50.155Z,4.38
2022-09-01T22:14:17.092Z,5.72
2022-09-01T22:16:43.688Z,4.72
2022-09-01T22:19:10.377Z,5.45
2022-09-01T22:21:37.400Z,4.60
2022-09-01T22:24:05.145Z,4.45
2022-09-01T22:26:33.283Z,5.85
2022-09-01T22:29:01.964Z,5.10
2022-09-01T22:31:30.688Z,7.88
2022-09-01T22:33:57.816Z,6.03
2022-09-01T22:36:50.800Z,6.47
2022-09-01T22:39:18.561Z,7.90
2022-09-01T22:41:45.193Z,6.65
2022-09-01T22:44:12.177Z,5.25
2022-09-01T22:46:39.645Z,5.82
2022-09-01T22:49:06.635Z,4.85
2022-09-01T22:51:33.901Z,6.28
2022-09-01T22:54:00.597Z,4.82
2022-09-01T22:56:31.005Z,5.60
2022-09-01T22:59:01.663Z,6.53
2022-09-01T23:01:31.700Z,5.68
2022-09-01T23:04:01.678Z,7.05
2022-09-01T23:06:30.840Z,6.38
2022-09-01T23:08:59.634Z,7.07
2022-09-01T23:11:27.000Z,4.78
2022-09-01T23:13:54.323Z,6.03
2022-09-01T23:16:22.358Z,6.85
2022-09-01T23:18:50.076Z,6.20
2022-09-01T23:21:19.666Z,7.22
2022-09-01T23:23:46.256Z,4.78
2022-09-01T23:26:14.250Z,6.63
2022-09-01T23:28:42.279Z,5.13
2022-09-01T23:31:17.039Z,5.13
2022-09-01T23:33:44.299Z,5.95
2022-09-01T23:36:14.092Z,4.97
2022-09-01T23:38:41.463Z,6.78
2022-09-01T23:41:12.588Z,6.05
2022-09-01T23:43:39.764Z,4.97
2022-09-01T23:46:07.753Z,6.10
2022-09-01T23:48:34.845Z,5.00
2022-09-01T23:51:08.463Z,7.32
2022-09-01T23:56:04.488Z,6.63
2022-09-01T23:58:32.091Z,7.40
